createdAt,value
2023-01-19T00:00:43.971Z,33.45
2023-01-19T00:03:16.088Z,29.90
2023-01-19T00:05:44.816Z,29.17
2023-01-19T00:08:15.928Z,30.77
2023-01-19T00:10:45.428Z,35.88
2023-01-19T00:13:13.823Z,29.85
2023-01-19T00:15:41.725Z,28.38
2023-01-19T00:18:10.941Z,27.92
2023-01-19T00:20:39.453Z,29.67
2023-01-19T00:23:08.608Z,25.42
2023-01-19T00:25:42.514Z,26.13
2023-01-19T00:28:11.364Z,24.30
2023-01-19T00:30:39.663Z,26.08
2023-01-19T00:33:07.555Z,25.48
2023-01-19T00:35:35.503Z,27.65
2023-01-19T00:38:04.425Z,24.55
2023-01-19T00:40:32.446Z,28.75
2023-01-19T00:43:02.073Z,30.58
2023-01-19T00:45:30.246Z,33.60
2023-01-19T00:47:58.229Z,33.03
2023-01-19T00:50:27.443Z,34.35
2023-01-19T00:52:56.737Z,33.53
2023-01-19T00:55:25.366Z,28.95
2023-01-19T00:57:53.332Z,28.92
2023-01-19T01:00:23.298Z,28.90
2023-01-19T01:02:52.955Z,27.98
2023-01-19T01:05:21.656Z,23.30
2023-01-19T01:07:50.712Z,26.33
2023-01-19T01:10:21.213Z,26.20
2023-01-19T01:12:53.616Z,23.13
2023-01-19T01:15:28.365Z,27.05
2023-01-19T01:17:57.044Z,27.60
2023-01-19T01:20:27.954Z,26.65
2023-01-19T01:22:57.284Z,27.65
2023-01-19T01:25:26.849Z,27.25
2023-01-19T01:27:55.590Z,23.65
2023-01-19T01:30:24.792Z,25.52
2023-01-19T01:32:54.157Z,24.20
2023-01-19T01:35:22.041Z,23.35
2023-01-19T01:37:50.004Z,24.73
2023-01-19T01:40:20.049Z,20.75
2023-01-19T01:42:48.406Z,23.33
2023-01-19T01:45:31.018Z,23.52
2023-01-19T01:48:04.296Z,23.10
2023-01-19T01:50:35.263Z,23.92
2023-01-19T01:53:07.969Z,23.58
2023-01-19T01:55:39.476Z,24.55
2023-01-19T01:58:11.325Z,28.15
2023-01-19T02:00:54.130Z,25.00
2023-01-19T02:03:25.419Z,26.67
2023-01-19T02:05:56.850Z,25.25
2023-01-19T02:08:49.101Z,28.08
2023-01-19T02:11:35.390Z,30.55
2023-01-19T02:14:05.131Z,29.33
2023-01-19T02:16:33.630Z,31.10
2023-01-19T02:19:03.244Z,23.73
2023-01-19T02:21:42.999Z,25.63
2023-01-19T02:24:12.605Z,23.38
2023-01-19T02:26:44.006Z,22.77
2023-01-19T02:29:14.396Z,24.20
2023-01-19T02:31:42.767Z,25.73
2023-01-19T02:34:12.996Z,26.23
2023-01-19T02:36:45.715Z,26.65
2023-01-19T02:39:16.732Z,36.55
2023-01-19T02:41:51.714Z,36.63
2023-01-19T02:46:49.428Z,35.70
2023-01-19T02:49:17.278Z,44.33
2023-01-19T02:51:45.634Z,39.42
2023-01-19T02:54:36.179Z,35.63
2023-01-19T02:57:27.500Z,35.28
2023-01-19T03:00:09.763Z,35.33
2023-01-19T03:02:49.649Z,37.50
2023-01-19T03:05:34.292Z,27.67
2023-01-19T03:08:12.496Z,32.97
2023-01-19T03:10:52.631Z,31.63
2023-01-19T03:13:28.641Z,31.88
2023-01-19T03:16:01.341Z,32.35
2023-01-19T03:18:32.499Z,31.45
2023-01-19T03:21:03.849Z,32.28
2023-01-19T03:23:33.790Z,35.28
2023-01-19T03:26:05.236Z,32.58
2023-01-19T03:28:35.755Z,33.15
2023-01-19T03:31:11.290Z,32.38
2023-01-19T03:33:44.571Z,34.08
2023-01-19T03:36:16.535Z,31.38
2023-01-19T03:38:47.908Z,40.30
2023-01-19T03:41:20.645Z,51.92
2023-01-19T03:43:51.970Z,44.97
2023-01-19T03:46:21.597Z,36.97
2023-01-19T03:48:50.054Z,33.25
2023-01-19T03:51:19.555Z,37.03
2023-01-19T03:53:47.845Z,33.72
2023-01-19T03:56:21.713Z,30.30
2023-01-19T03:58:50.065Z,27.58
2023-01-19T04:01:20.807Z,35.03
2023-01-19T04:03:48.789Z,30.25
2023-01-19T04:06:16.874Z,30.48
2023-01-19T04:08:44.833Z,33.45
2023-01-19T04:11:13.327Z,30.42
2023-01-19T04:13:42.708Z,29.75
2023-01-19T04:16:12.009Z,31.42
2023-01-19T04:18:41.451Z,28.35
2023-01-19T04:21:09.625Z,31.10
2023-01-19T04:23:37.886Z,26.98
2023-01-19T04:26:08.226Z,29.83
2023-01-19T04:28:37.536Z,27.92
2023-01-19T04:31:08.223Z,26.90
2023-01-19T04:33:36.268Z,30.15
2023-01-19T04:36:05.219Z,30.45
2023-01-19T04:38:34.270Z,37.45
2023-01-19T04:41:02.335Z,37.92
2023-01-19T04:43:30.402Z,31.90
2023-01-19T04:45:58.878Z,23.67
2023-01-19T04:48:28.299Z,27.77
2023-01-19T04:50:56.299Z,31.38
2023-01-19T04:53:24.450Z,40.13
2023-01-19T04:55:55.800Z,35.60
2023-01-19T04:58:23.916Z,35.53
2023-01-19T05:00:53.122Z,32.15
2023-01-19T05:03:21.424Z,35.17
2023-01-19T05:05:50.889Z,34.28
2023-01-19T05:08:18.837Z,34.47
2023-01-19T05:10:46.799Z,31.60
2023-01-19T05:13:15.195Z,47.08
2023-01-19T05:15:43.237Z,47.33
2023-01-19T05:18:11.320Z,39.63
2023-01-19T05:20:39.641Z,42.78
2023-01-19T05:23:09.165Z,36.00
2023-01-19T05:25:37.259Z,37.78
2023-01-19T05:28:05.582Z,81.35
2023-01-19T05:30:34.040Z,37.28
2023-01-19T05:33:02.409Z,37.45
2023-01-19T05:35:36.300Z,51.63
2023-01-19T05:38:05.000Z,32.90
2023-01-19T05:40:34.512Z,32.00
2023-01-19T05:43:05.291Z,32.35
2023-01-19T05:45:34.049Z,36.35
2023-01-19T05:48:02.200Z,39.60
2023-01-19T05:50:30.133Z,41.13
2023-01-19T05:52:58.574Z,38.00
2023-01-19T05:55:27.567Z,44.13
2023-01-19T05:57:57.000Z,42.85
2023-01-19T06:00:25.824Z,52.22
2023-01-19T06:02:53.887Z,47.03
2023-01-19T06:05:21.965Z,45.72
2023-01-19T06:07:49.978Z,47.30
2023-01-19T06:10:18.272Z,46.65
2023-01-19T06:12:46.305Z,42.53
2023-01-19T06:15:15.857Z,39.97
2023-01-19T06:17:43.956Z,43.65
2023-01-19T06:20:14.025Z,34.47
2023-01-19T06:22:42.058Z,37.88
2023-01-19T06:25:11.618Z,28.08
2023-01-19T06:27:40.140Z,33.75
2023-01-19T06:30:09.405Z,32.95
2023-01-19T06:32:38.711Z,45.90
2023-01-19T06:35:07.846Z,48.15
2023-01-19T06:37:36.697Z,46.35
2023-01-19T06:40:05.234Z,50.42
2023-01-19T06:42:33.183Z,38.70
2023-01-19T06:45:01.218Z,38.38
2023-01-19T06:47:29.308Z,45.88
2023-01-19T06:49:58.653Z,34.38
2023-01-19T06:52:27.017Z,44.38
2023-01-19T06:54:56.613Z,39.03
2023-01-19T06:57:25.901Z,36.58
2023-01-19T06:59:54.054Z,36.33
2023-01-19T07:02:26.570Z,36.30
2023-01-19T07:04:56.083Z,36.83
2023-01-19T07:07:25.981Z,33.72
2023-01-19T07:09:54.368Z,33.58
2023-01-19T07:12:22.592Z,35.65
2023-01-19T07:14:50.689Z,31.10
2023-01-19T07:17:18.774Z,31.27
2023-01-19T07:19:47.650Z,34.80
2023-01-19T07:22:15.784Z,30.73
2023-01-19T07:24:45.225Z,32.83
2023-01-19T07:27:13.533Z,31.55
2023-01-19T07:29:41.712Z,30.85
2023-01-19T07:32:10.948Z,34.03
2023-01-19T07:34:38.966Z,30.92
2023-01-19T07:37:06.923Z,29.35
2023-01-19T07:39:36.705Z,29.02
2023-01-19T07:42:06.207Z,28.67
2023-01-19T07:44:34.216Z,33.38
2023-01-19T07:47:02.201Z,30.52
2023-01-19T07:49:30.275Z,29.52
2023-01-19T07:51:58.281Z,41.05
2023-01-19T07:54:27.620Z,31.23
2023-01-19T07:56:55.847Z,35.63
2023-01-19T07:59:25.205Z,31.25
2023-01-19T08:01:54.219Z,37.72
2023-01-19T08:04:22.513Z,37.80
2023-01-19T08:06:50.686Z,35.80
2023-01-19T08:09:19.185Z,31.08
2023-01-19T08:11:47.196Z,36.83
2023-01-19T08:14:15.195Z,40.45
2023-01-19T08:16:44.555Z,39.53
2023-01-19T08:19:12.638Z,42.75
2023-01-19T08:21:41.047Z,36.47
2023-01-19T08:24:19.738Z,31.73
2023-01-19T08:26:47.816Z,27.02
2023-01-19T08:29:15.985Z,28.92
2023-01-19T08:31:45.491Z,29.73
2023-01-19T08:34:13.479Z,31.52
2023-01-19T08:36:41.532Z,27.88
2023-01-19T08:39:12.212Z,30.00
2023-01-19T08:41:40.330Z,25.77
2023-01-19T08:44:08.378Z,30.17
2023-01-19T08:46:36.602Z,34.97
2023-01-19T08:49:05.966Z,32.42
2023-01-19T08:51:34.252Z,37.75
2023-01-19T08:54:02.400Z,28.23
2023-01-19T08:56:30.466Z,40.65
2023-01-19T08:59:08.695Z,35.30
2023-01-19T09:01:38.241Z,32.70
2023-01-19T09:04:07.777Z,37.58
2023-01-19T09:06:35.946Z,39.17
2023-01-19T09:09:04.485Z,44.38
2023-01-19T09:11:33.243Z,47.95
2023-01-19T09:14:01.408Z,43.20
2023-01-19T09:16:29.785Z,38.75
2023-01-19T09:18:58.557Z,36.60
2023-01-19T09:21:28.559Z,35.25
2023-01-19T09:23:57.781Z,32.58
2023-01-19T09:26:25.775Z,34.25
2023-01-19T09:28:53.733Z,34.58
2023-01-19T09:31:21.840Z,33.65
2023-01-19T09:33:49.833Z,37.33
2023-01-19T09:36:17.741Z,40.85
2023-01-19T09:38:47.116Z,41.42
2023-01-19T09:41:21.908Z,44.17
2023-01-19T09:43:56.249Z,44.70
2023-01-19T09:46:30.151Z,36.72
2023-01-19T09:49:01.484Z,35.17
2023-01-19T09:51:33.859Z,30.25
2023-01-19T09:54:13.050Z,25.10
2023-01-19T09:56:41.708Z,32.40
2023-01-19T09:59:22.926Z,41.30
2023-01-19T10:02:07.781Z,37.88
2023-01-19T10:04:41.319Z,32.53
2023-01-19T10:07:22.298Z,24.92
2023-01-19T10:10:06.147Z,21.73
2023-01-19T10:12:44.949Z,26.15
2023-01-19T10:15:21.529Z,23.20
2023-01-19T10:18:05.287Z,19.40
2023-01-19T10:20:39.942Z,22.85
2023-01-19T10:23:22.990Z,20.17
2023-01-19T10:25:52.943Z,19.65
2023-01-19T10:28:26.589Z,18.00
2023-01-19T10:30:56.164Z,17.55
2023-01-19T10:33:24.378Z,17.23
2023-01-19T10:35:52.845Z,17.17
2023-01-19T10:38:22.309Z,19.30
2023-01-19T10:40:58.470Z,19.40
2023-01-19T10:43:41.621Z,17.17
2023-01-19T10:46:18.999Z,19.40
2023-01-19T10:48:50.274Z,19.20
2023-01-19T10:51:19.215Z,23.58
2023-01-19T10:53:58.161Z,23.20
2023-01-19T10:56:32.324Z,23.98
2023-01-19T10:59:05.070Z,23.92
2023-01-19T11:01:37.138Z,23.52
2023-01-19T11:04:22.558Z,18.35
2023-01-19T11:06:50.496Z,19.33
2023-01-19T11:09:20.763Z,19.23
2023-01-19T11:11:53.285Z,18.67
2023-01-19T11:14:23.879Z,18.15
2023-01-19T11:16:55.473Z,19.25
2023-01-19T11:19:28.693Z,21.33
2023-01-19T11:22:21.641Z,24.48
2023-01-19T11:24:50.614Z,26.60
2023-01-19T11:27:21.951Z,31.27
2023-01-19T11:29:51.818Z,24.98
2023-01-19T11:32:23.463Z,21.25
2023-01-19T11:34:51.599Z,20.05
2023-01-19T11:37:31.560Z,27.17
2023-01-19T11:40:02.955Z,39.30
2023-01-19T11:42:36.655Z,46.05
2023-01-19T11:45:08.948Z,39.88
2023-01-19T11:47:42.439Z,38.00
2023-01-19T11:50:21.115Z,41.03
2023-01-19T11:52:54.524Z,41.60
2023-01-19T11:55:30.630Z,49.28
2023-01-19T11:58:00.518Z,56.42
2023-01-19T12:00:36.195Z,49.13
2023-01-19T12:03:13.743Z,34.20
2023-01-19T12:05:48.128Z,54.70
2023-01-19T12:08:20.385Z,50.03
2023-01-19T12:10:49.722Z,39.58
2023-01-19T12:13:24.671Z,31.10
2023-01-19T12:18:29.452Z,27.30
2023-01-19T12:20:58.801Z,31.73
2023-01-19T12:23:37.391Z,32.00
2023-01-19T12:26:28.970Z,41.15
2023-01-19T12:29:01.785Z,35.22
2023-01-19T12:31:30.026Z,37.10
2023-01-19T12:34:36.118Z,39.53
2023-01-19T12:37:05.838Z,36.70
2023-01-19T12:39:35.429Z,38.65
2023-01-19T12:42:15.526Z,42.35
2023-01-19T12:44:46.648Z,37.30
2023-01-19T12:47:24.444Z,44.17
2023-01-19T12:49:58.638Z,36.85
2023-01-19T12:52:34.400Z,42.87
2023-01-19T12:55:08.458Z,35.13
2023-01-19T12:57:40.931Z,31.90
2023-01-19T13:00:40.791Z,34.03
2023-01-19T13:03:47.381Z,31.90
2023-01-19T13:06:15.430Z,31.80
2023-01-19T13:09:01.385Z,22.63
2023-01-19T13:11:34.343Z,19.05
2023-01-19T13:14:34.782Z,26.67
2023-01-19T13:17:30.856Z,15.88
2023-01-19T13:20:07.226Z,21.58
2023-01-19T13:23:08.863Z,20.73
2023-01-19T13:25:37.352Z,20.38
2023-01-19T13:28:11.993Z,22.02
2023-01-19T13:30:51.325Z,15.35
2023-01-19T13:33:23.583Z,21.20
2023-01-19T13:35:58.668Z,21.17
2023-01-19T13:38:28.753Z,21.45
2023-01-19T13:41:00.739Z,26.58
2023-01-19T13:43:33.088Z,21.10
2023-01-19T13:46:01.652Z,19.65
2023-01-19T13:48:33.465Z,19.17
2023-01-19T13:51:06.951Z,20.20
2023-01-19T13:53:36.634Z,17.00
2023-01-19T13:56:18.271Z,11.82
2023-01-19T13:58:59.073Z,10.95
2023-01-19T14:01:29.355Z,13.93
2023-01-19T14:03:59.816Z,11.95
2023-01-19T14:06:39.063Z,9.13
2023-01-19T14:09:08.969Z,8.20
2023-01-19T14:11:37.088Z,10.98
2023-01-19T14:14:05.061Z,13.55
2023-01-19T14:16:33.184Z,7.88
2023-01-19T14:19:04.780Z,3.83
2023-01-19T14:21:40.146Z,3.58
2023-01-19T14:24:10.685Z,7.32
2023-01-19T14:26:46.415Z,7.88
2023-01-19T14:29:25.317Z,5.43
2023-01-19T14:32:06.184Z,3.65
2023-01-19T14:34:39.954Z,5.50
2023-01-19T14:37:16.790Z,4.90
2023-01-19T14:39:49.935Z,7.25
2023-01-19T14:42:23.600Z,6.47
2023-01-19T14:44:53.973Z,8.00
2023-01-19T14:47:36.949Z,9.50
2023-01-19T14:50:18.867Z,11.25
2023-01-19T14:52:53.929Z,7.45
2023-01-19T14:55:25.246Z,7.43
2023-01-19T14:57:54.751Z,8.02
2023-01-19T15:00:23.338Z,26.98
2023-01-19T15:02:51.315Z,34.67
2023-01-19T15:05:21.356Z,7.28
2023-01-19T15:07:49.395Z,6.97
2023-01-19T15:10:22.021Z,28.17
2023-01-19T15:12:51.171Z,16.38
2023-01-19T15:15:22.773Z,12.18
2023-01-19T15:17:51.435Z,4.25
2023-01-19T15:20:24.751Z,2.85
2023-01-19T15:22:52.722Z,8.27
2023-01-19T15:25:23.052Z,5.68
2023-01-19T15:55:12.029Z,5.53
2023-01-19T15:57:40.289Z,11.88
2023-01-19T16:00:09.522Z,26.27
2023-01-19T16:02:38.023Z,36.35
2023-01-19T16:05:06.894Z,37.78
2023-01-19T16:07:35.165Z,33.60
2023-01-19T16:10:06.377Z,9.25
2023-01-19T16:12:36.170Z,7.63
2023-01-19T16:15:04.370Z,4.88
2023-01-19T16:17:32.512Z,2.90
2023-01-19T16:20:00.634Z,4.78
2023-01-19T16:22:28.747Z,6.28
2023-01-19T16:24:57.300Z,3.90
2023-01-19T16:27:26.315Z,7.65
2023-01-19T16:29:57.165Z,6.85
2023-01-19T16:32:25.278Z,39.80
2023-01-19T16:34:53.451Z,10.27
2023-01-19T16:37:21.566Z,8.23
2023-01-19T16:39:51.424Z,8.48
2023-01-19T16:42:19.610Z,7.13
2023-01-19T16:44:47.769Z,6.57
2023-01-19T16:47:17.225Z,11.90
2023-01-19T16:49:45.306Z,41.58
2023-01-19T16:52:13.515Z,37.13
2023-01-19T16:54:43.753Z,32.15
2023-01-19T16:57:13.020Z,35.72
2023-01-19T16:59:41.498Z,29.98
2023-01-19T17:02:11.541Z,19.60
2023-01-19T17:04:43.432Z,20.23
2023-01-19T17:07:11.581Z,25.35
2023-01-19T17:09:39.831Z,30.30
2023-01-19T17:12:09.342Z,32.13
2023-01-19T17:14:38.339Z,28.63
2023-01-19T17:17:09.358Z,27.05
2023-01-19T17:19:37.609Z,30.33
2023-01-19T17:22:07.624Z,11.32
2023-01-19T17:24:35.805Z,9.88
2023-01-19T17:27:03.899Z,9.82
2023-01-19T17:29:31.888Z,9.82
2023-01-19T17:32:00.114Z,10.98
2023-01-19T17:34:28.516Z,12.55
2023-01-19T17:37:03.012Z,10.57
2023-01-19T17:39:32.839Z,29.13
2023-01-19T17:42:02.109Z,14.43
2023-01-19T17:44:30.287Z,18.60
2023-01-19T17:46:59.963Z,15.98
2023-01-19T17:49:28.411Z,22.42
2023-01-19T17:51:56.528Z,23.80
2023-01-19T17:54:24.815Z,17.67
2023-01-19T17:56:56.207Z,43.70
2023-01-19T17:59:24.315Z,34.83
2023-01-19T18:01:52.491Z,32.80
2023-01-19T18:04:20.679Z,32.35
2023-01-19T18:06:50.022Z,34.38
2023-01-19T18:09:18.351Z,36.03
2023-01-19T18:11:46.423Z,44.83
2023-01-19T18:14:17.065Z,43.53
2023-01-19T18:16:45.609Z,37.83
2023-01-19T18:19:13.723Z,41.92
2023-01-19T18:21:41.923Z,42.40
2023-01-19T18:24:10.143Z,47.03
2023-01-19T18:26:41.654Z,47.55
2023-01-19T18:29:10.168Z,45.80
2023-01-19T18:31:39.750Z,29.55
2023-01-19T18:34:07.885Z,34.72
2023-01-19T18:36:36.615Z,40.53
2023-01-19T18:39:05.028Z,32.58
2023-01-19T18:41:34.172Z,44.00
2023-01-19T18:44:02.226Z,43.15
2023-01-19T18:46:30.398Z,37.25
2023-01-19T18:48:59.882Z,25.15
2023-01-19T18:51:27.988Z,27.20
2023-01-19T18:53:57.348Z,39.63
2023-01-19T18:56:26.337Z,33.15
2023-01-19T18:58:54.605Z,33.63
2023-01-19T19:01:26.147Z,27.58
2023-01-19T19:03:55.273Z,41.08
2023-01-19T19:06:27.052Z,52.75
2023-01-19T19:08:57.526Z,52.05
2023-01-19T19:11:26.692Z,48.58
2023-01-19T19:13:55.586Z,35.08
2023-01-19T19:16:23.755Z,31.15
2023-01-19T19:18:52.168Z,26.85
2023-01-19T19:21:22.140Z,23.27
2023-01-19T19:23:55.785Z,24.55
2023-01-19T19:26:25.040Z,21.15
2023-01-19T19:28:53.074Z,19.05
2023-01-19T19:31:23.533Z,20.17
2023-01-19T19:33:51.952Z,19.00
2023-01-19T19:36:21.252Z,21.13
2023-01-19T19:38:49.678Z,30.95
2023-01-19T19:41:21.217Z,30.25
2023-01-19T19:43:49.622Z,39.60
2023-01-19T19:46:20.282Z,45.17
2023-01-19T19:48:48.972Z,110.30
2023-01-19T19:51:20.408Z,129.68
2023-01-19T19:53:51.369Z,95.47
2023-01-19T19:56:23.560Z,80.25
2023-01-19T19:58:53.016Z,76.20
2023-01-19T20:01:26.096Z,75.50
2023-01-19T20:03:55.888Z,61.20
2023-01-19T20:06:25.877Z,46.58
2023-01-19T20:08:56.078Z,51.38
2023-01-19T20:11:27.826Z,40.92
2023-01-19T20:13:56.299Z,36.08
2023-01-19T20:16:24.752Z,47.03
2023-01-19T20:18:55.335Z,45.17
2023-01-19T20:21:25.146Z,36.17
2023-01-19T20:23:54.174Z,31.90
2023-01-19T20:26:26.582Z,34.38
2023-01-19T20:28:55.396Z,35.28
2023-01-19T20:31:26.939Z,30.98
2023-01-19T20:33:57.325Z,28.88
2023-01-19T20:36:25.565Z,26.10
2023-01-19T20:38:54.226Z,23.20
2023-01-19T20:41:23.266Z,27.85
2023-01-19T20:43:53.134Z,20.58
2023-01-19T20:46:21.134Z,18.50
2023-01-19T20:48:52.969Z,19.15
2023-01-19T20:51:21.539Z,18.15
2023-01-19T20:53:49.664Z,20.77
2023-01-19T20:56:17.838Z,21.23
2023-01-19T20:58:45.976Z,20.83
2023-01-19T21:01:17.694Z,20.08
2023-01-19T21:03:45.970Z,17.98
2023-01-19T21:06:14.574Z,17.90
2023-01-19T21:08:43.528Z,17.30
2023-01-19T21:11:13.204Z,16.02
2023-01-19T21:13:41.368Z,17.52
2023-01-19T21:16:09.934Z,42.10
2023-01-19T21:18:39.684Z,166.00
2023-01-19T21:21:12.620Z,73.57
2023-01-19T21:23:46.936Z,52.13
2023-01-19T21:26:15.860Z,50.97
2023-01-19T21:28:44.225Z,56.70
2023-01-19T21:31:14.503Z,48.20
2023-01-19T21:33:44.486Z,42.58
2023-01-19T21:36:12.805Z,35.90
2023-01-19T21:38:40.991Z,30.92
2023-01-19T21:41:12.597Z,63.03
2023-01-19T21:43:42.785Z,112.60
2023-01-19T21:46:12.073Z,72.38
2023-01-19T21:48:40.276Z,169.95
2023-01-19T21:51:10.112Z,161.73
2023-01-19T21:53:38.332Z,113.75
2023-01-19T21:56:08.073Z,99.13
2023-01-19T21:58:36.442Z,50.90
2023-01-19T22:01:06.890Z,44.70
2023-01-19T22:03:37.790Z,28.98
2023-01-19T22:06:06.461Z,29.58
2023-01-19T22:08:36.940Z,29.92
2023-01-19T22:11:05.745Z,27.40
2023-01-19T22:13:34.507Z,29.05
2023-01-19T22:16:03.110Z,31.23
2023-01-19T22:18:31.601Z,33.92
2023-01-19T22:21:08.872Z,29.58
2023-01-19T22:23:38.463Z,30.60
2023-01-19T22:26:06.884Z,33.05
2023-01-19T22:28:35.354Z,31.88
2023-01-19T22:31:04.896Z,37.13
2023-01-19T22:33:33.147Z,33.35
2023-01-19T22:36:13.048Z,33.42
2023-01-19T22:38:43.160Z,35.92
2023-01-19T22:41:19.131Z,38.05
2023-01-19T22:43:47.890Z,36.83
2023-01-19T22:46:20.176Z,35.80
2023-01-19T22:48:48.966Z,35.20
2023-01-19T22:51:18.333Z,34.42
2023-01-19T22:53:48.204Z,35.63
2023-01-19T22:56:18.051Z,34.95
2023-01-19T22:58:46.734Z,31.88
2023-01-19T23:01:16.979Z,30.27
2023-01-19T23:03:45.364Z,30.60
2023-01-19T23:06:15.021Z,34.25
2023-01-19T23:08:43.213Z,33.50
2023-01-19T23:11:14.951Z,35.25
2023-01-19T23:13:43.448Z,31.52
2023-01-19T23:16:12.134Z,33.10
2023-01-19T23:18:41.010Z,35.47
2023-01-19T23:21:11.469Z,37.45
2023-01-19T23:23:39.919Z,36.55
2023-01-19T23:26:10.100Z,38.40
2023-01-19T23:28:40.011Z,34.80
2023-01-19T23:31:15.437Z,37.78
2023-01-19T23:33:44.486Z,37.85
2023-01-19T23:36:13.130Z,35.97
2023-01-19T23:38:42.001Z,35.42
2023-01-19T23:41:10.284Z,35.88
2023-01-19T23:43:39.633Z,40.92
2023-01-19T23:46:09.851Z,40.05
2023-01-19T23:48:38.249Z,48.05
2023-01-19T23:51:10.716Z,43.00
2023-01-19T23:53:39.279Z,41.97
2023-01-19T23:56:11.685Z,39.28
2023-01-19T23:58:42.092Z,39.05
